Time;durP1;ratioP1;P1;durP2;ratioP2;P2;SDS_P1;SDS_P2;PMS_P1;PMS_P2;Temp;Humidity;BMP_temperature;BMP_pressure;BME280_temperature;BME280_humidity;BME280_pressure;Samples;Min_cycle;Max_cycle;Signal;HPM_P1;HPM_P2
2023/08/04 00:00:37;;;;;;;1.00;0.90;;;14.90;99.90;;;;;;4974136;28;20389;-83
2023/08/04 00:03:03;;;;;;;3.20;1.20;;;14.80;99.90;;;;;;4974197;28;20768;-84
2023/08/04 00:05:28;;;;;;;1.30;1.00;;;13.90;99.90;;;;;;4954467;28;20396;-84
2023/08/04 00:07:54;;;;;;;2.50;1.00;;;14.70;99.90;;;;;;4954648;28;20912;-84
2023/08/04 00:10:20;;;;;;;1.92;1.20;;;14.80;99.90;;;;;;4973346;28;20455;-83
2023/08/04 00:12:46;;;;;;;1.47;1.13;;;14.80;99.90;;;;;;4970177;28;20408;-83
2023/08/04 00:15:11;;;;;;;4.10;1.50;;;14.70;99.90;;;;;;4954475;28;20423;-84
2023/08/04 00:17:38;;;;;;;3.15;1.30;;;14.70;99.90;;;;;;4954445;28;20438;-84
2023/08/04 00:20:11;;;;;;;1.20;0.95;;;14.70;99.90;;;;;;4966472;28;20417;-84
2023/08/04 00:22:37;;;;;;;2.53;0.90;;;14.70;99.90;;;;;;4981611;28;20407;-84
2023/08/04 00:25:03;;;;;;;2.50;0.82;;;14.20;99.90;;;;;;4955179;28;20404;-84
2023/08/04 00:27:29;;;;;;;2.10;0.90;;;14.60;99.90;;;;;;4954733;28;20411;-84
2023/08/04 00:29:54;;;;;;;1.00;0.80;;;14.70;99.90;;;;;;4964108;28;20400;-85
2023/08/04 00:32:20;;;;;;;2.70;1.10;;;13.80;99.90;;;;;;4970485;28;20423;-84
2023/08/04 00:34:45;;;;;;;3.10;0.90;;;14.40;99.90;;;;;;4954337;28;20499;-84
2023/08/04 00:37:11;;;;;;;2.15;1.00;;;13.70;99.90;;;;;;4970830;28;20527;-84
2023/08/04 00:39:37;;;;;;;3.38;1.00;;;13.50;99.90;;;;;;4973665;28;20510;-84
2023/08/04 00:42:02;;;;;;;1.70;0.90;;;14.60;99.90;;;;;;4974310;28;20915;-84
2023/08/04 00:44:28;;;;;;;2.27;1.00;;;14.50;99.90;;;;;;4975280;28;20392;-84
2023/08/04 00:46:53;;;;;;;3.42;1.20;;;14.50;99.90;;;;;;4967258;28;20501;-84
2023/08/04 00:49:20;;;;;;;1.90;0.80;;;13.60;99.90;;;;;;4995035;28;20449;-85
2023/08/04 00:51:47;;;;;;;3.00;1.10;;;13.70;99.90;;;;;;4965526;28;20426;-84
2023/08/04 00:54:12;;;;;;;1.30;0.90;;;14.40;99.90;;;;;;4957652;28;20794;-85
2023/08/04 00:56:38;;;;;;;1.37;1.00;;;14.50;99.90;;;;;;4975370;28;20483;-84
2023/08/04 00:59:04;;;;;;;1.75;1.15;;;14.40;99.90;;;;;;4957771;28;20396;-85
2023/08/04 01:01:30;;;;;;;3.95;1.27;;;14.20;99.90;;;;;;4976058;28;20438;-85
2023/08/04 01:03:57;;;;;;;3.42;1.00;;;14.30;99.90;;;;;;4957985;28;20396;-84
2023/08/04 01:06:48;;;;;;;3.78;1.00;;;14.30;99.90;;;;;;4957666;28;20903;-83
2023/08/04 01:09:32;;;;;;;1.70;1.00;;;14.30;99.90;;;;;;4975109;28;20396;-83
2023/08/04 01:12:25;;;;;;;3.90;0.88;;;14.30;99.90;;;;;;4957408;28;20400;-84
2023/08/04 01:14:55;;;;;;;1.50;1.00;;;14.40;99.90;;;;;;4976704;28;20407;-84
2023/08/04 01:17:22;;;;;;;4.03;1.00;;;14.40;99.90;;;;;;4994340;28;20437;-84
2023/08/04 01:19:47;;;;;;;1.60;0.90;;;14.40;99.90;;;;;;4957893;28;20916;-84
2023/08/04 01:22:13;;;;;;;2.30;0.77;;;13.60;99.90;;;;;;4957020;28;20400;-84
2023/08/04 01:24:38;;;;;;;3.20;1.00;;;14.60;99.90;;;;;;4960644;28;20402;-84
2023/08/04 01:27:05;;;;;;;1.92;0.95;;;14.70;99.90;;;;;;4993732;28;20401;-83
2023/08/04 01:29:31;;;;;;;2.72;0.93;;;14.70;99.90;;;;;;4993953;28;21054;-84
2023/08/04 01:31:58;;;;;;;1.40;0.70;;;14.70;99.90;;;;;;4986216;28;20411;-84
2023/08/04 01:34:24;;;;;;;2.55;0.70;;;14.70;99.90;;;;;;4974657;28;20508;-84
2023/08/04 01:36:50;;;;;;;4.03;0.90;;;14.80;99.90;;;;;;4974239;28;20741;-84
2023/08/04 01:39:16;;;;;;;1.77;0.93;;;14.70;99.90;;;;;;4957151;28;20388;-84
2023/08/04 01:41:41;;;;;;;2.60;1.00;;;14.80;99.90;;;;;;4961039;28;20745;-84
2023/08/04 01:44:07;;;;;;;1.48;0.80;;;14.80;99.90;;;;;;4976578;28;20396;-84
2023/08/04 01:46:32;;;;;;;1.43;0.90;;;15.00;99.90;;;;;;4968991;28;20458;-84
2023/08/04 01:48:58;;;;;;;1.53;0.87;;;14.90;99.90;;;;;;4977421;28;20499;-84
2023/08/04 01:51:24;;;;;;;1.80;0.65;;;14.90;99.90;;;;;;4955466;28;20404;-84
2023/08/04 01:53:49;;;;;;;2.10;0.70;;;15.10;99.90;;;;;;4957090;28;20388;-84
2023/08/04 01:56:14;;;;;;;1.27;0.60;;;14.10;99.90;;;;;;4973932;28;20491;-84
2023/08/04 01:58:40;;;;;;;2.40;0.93;;;15.20;99.90;;;;;;4986703;28;20481;-84
2023/08/04 02:01:06;;;;;;;1.20;0.70;;;14.30;99.90;;;;;;4975842;28;20386;-84
2023/08/04 02:03:33;;;;;;;1.90;0.65;;;15.00;99.90;;;;;;4988685;28;20463;-84
2023/08/04 02:05:58;;;;;;;0.80;0.57;;;15.90;99.90;;;;;;4975672;28;20394;-84
2023/08/04 02:08:24;;;;;;;1.70;1.00;;;15.00;99.90;;;;;;4993113;28;20461;-83
2023/08/04 02:10:50;;;;;;;1.40;0.90;;;15.00;99.90;;;;;;4975578;28;20469;-84
2023/08/04 02:13:15;;;;;;;2.00;0.90;;;15.00;99.90;;;;;;4992799;28;21059;-84
2023/08/04 02:15:41;;;;;;;1.80;0.80;;;14.60;99.90;;;;;;4957866;28;20950;-84
2023/08/04 02:18:06;;;;;;;1.10;0.80;;;15.10;99.90;;;;;;4956317;28;20916;-84
2023/08/04 02:20:32;;;;;;;1.50;0.90;;;15.10;99.90;;;;;;4966236;28;20400;-84
2023/08/04 02:22:57;;;;;;;2.00;0.90;;;15.00;99.90;;;;;;5041917;23;20451;-81
2023/08/04 02:25:23;;;;;;;0.77;0.67;;;15.40;99.90;;;;;;4977159;28;20458;-81
2023/08/04 02:27:49;;;;;;;2.47;0.85;;;15.00;99.90;;;;;;4976782;28;20423;-81
2023/08/04 02:30:15;;;;;;;2.05;0.73;;;15.10;99.90;;;;;;4958715;28;20400;-81
2023/08/04 02:32:40;;;;;;;2.23;0.70;;;15.10;99.90;;;;;;4988001;28;20893;-80
2023/08/04 02:35:06;;;;;;;1.00;0.70;;;15.20;99.90;;;;;;4969123;29;20453;-79
2023/08/04 02:37:32;;;;;;;2.50;0.75;;;15.20;99.90;;;;;;4977876;29;20401;-79
2023/08/04 02:39:57;;;;;;;1.87;0.97;;;15.00;99.90;;;;;;4957865;28;20505;-81
2023/08/04 02:42:24;;;;;;;1.70;0.80;;;15.10;99.90;;;;;;4923122;29;20399;-81
2023/08/04 02:44:54;;;;;;;1.90;1.10;;;14.50;99.90;;;;;;4940512;29;20505;-81
2023/08/04 02:47:20;;;;;;;1.95;0.80;;;15.00;99.90;;;;;;4939249;29;20478;-81
2023/08/04 02:49:45;;;;;;;2.00;0.90;;;15.90;99.90;;;;;;4931729;29;20442;-81
2023/08/04 02:52:14;;;;;;;2.27;0.90;;;15.20;99.90;;;;;;4943575;29;20392;-81
2023/08/04 02:54:40;;;;;;;1.70;0.80;;;15.60;99.90;;;;;;4926630;29;20435;-81
2023/08/04 02:57:06;;;;;;;1.50;0.90;;;15.00;99.90;;;;;;4940577;29;20394;-81
2023/08/04 02:59:31;;;;;;;1.40;0.60;;;15.00;99.90;;;;;;4930178;29;20376;-78
2023/08/04 03:01:57;;;;;;;2.75;0.90;;;15.00;99.90;;;;;;4957563;28;20420;-79
2023/08/04 03:04:22;;;;;;;3.30;0.90;;;14.90;99.90;;;;;;4964258;28;20426;-78
2023/08/04 03:06:48;;;;;;;1.70;0.90;;;15.00;99.90;;;;;;4939767;29;20404;-78
2023/08/04 03:09:13;;;;;;;2.30;0.90;;;15.00;99.90;;;;;;4932048;29;20396;-80
2023/08/04 03:11:39;;;;;;;1.30;0.87;;;15.10;99.90;;;;;;4952752;29;20419;-80
2023/08/04 03:14:04;;;;;;;1.75;0.80;;;15.20;99.90;;;;;;4925877;29;20392;-78
2023/08/04 03:16:30;;;;;;;2.90;1.07;;;15.20;99.90;;;;;;4944568;29;20442;-78
2023/08/04 03:18:55;;;;;;;1.50;0.90;;;15.20;99.90;;;;;;4921193;29;20414;-80
2023/08/04 03:21:21;;;;;;;2.85;0.95;;;15.30;99.90;;;;;;4954170;29;20456;-78
2023/08/04 03:23:46;;;;;;;1.80;1.00;;;15.30;99.90;;;;;;4939221;29;20402;-80
2023/08/04 03:26:12;;;;;;;2.20;0.80;;;15.40;99.90;;;;;;4956364;29;20390;-80
2023/08/04 03:28:37;;;;;;;1.70;0.80;;;15.20;99.90;;;;;;4921600;29;20775;-80
2023/08/04 03:31:03;;;;;;;1.50;0.73;;;15.40;99.90;;;;;;4919576;29;20410;-79
2023/08/04 03:33:28;;;;;;;1.08;0.77;;;15.30;99.90;;;;;;4937246;29;20418;-80
2023/08/04 03:35:54;;;;;;;0.90;0.70;;;15.30;99.90;;;;;;4920204;29;20442;-80
2023/08/04 03:38:19;;;;;;;0.77;0.70;;;15.20;99.90;;;;;;4951171;29;20406;-79
2023/08/04 03:40:45;;;;;;;2.50;0.82;;;15.30;99.90;;;;;;4956892;29;20440;-80
2023/08/04 03:43:11;;;;;;;2.30;1.00;;;15.40;99.90;;;;;;4939731;29;20451;-79
2023/08/04 03:45:36;;;;;;;2.50;1.00;;;14.60;99.90;;;;;;4919728;29;20395;-80
2023/08/04 03:48:02;;;;;;;1.38;0.90;;;15.30;99.90;;;;;;4937283;29;20835;-79
2023/08/04 03:50:27;;;;;;;1.80;0.70;;;15.30;99.90;;;;;;4937430;29;20402;-80
2023/08/04 03:52:53;;;;;;;0.90;0.70;;;15.40;99.90;;;;;;4937232;29;20407;-80
2023/08/04 03:55:18;;;;;;;1.50;0.80;;;15.50;99.90;;;;;;4920328;29;20482;-80
2023/08/04 03:57:44;;;;;;;1.70;0.80;;;15.60;99.90;;;;;;4936643;29;20876;-80
2023/08/04 04:00:10;;;;;;;1.50;0.80;;;15.70;99.90;;;;;;4919557;29;20808;-78
2023/08/04 04:02:35;;;;;;;1.90;0.63;;;15.80;99.90;;;;;;4953829;28;20452;-80
2023/08/04 04:05:01;;;;;;;1.50;0.70;;;16.10;99.90;;;;;;4921566;29;20776;-80
2023/08/04 04:07:26;;;;;;;2.00;0.80;;;16.30;99.90;;;;;;4919620;29;20862;-80
2023/08/04 04:09:52;;;;;;;1.90;0.77;;;16.40;99.90;;;;;;4920190;29;20458;-80
2023/08/04 04:12:17;;;;;;;1.50;0.70;;;16.50;99.90;;;;;;4933976;29;20810;-79
2023/08/04 04:14:43;;;;;;;1.70;0.60;;;16.70;99.90;;;;;;4956078;28;20397;-79
2023/08/04 04:17:09;;;;;;;1.50;0.50;;;16.90;99.90;;;;;;4938684;29;20382;-80
2023/08/04 04:19:34;;;;;;;0.93;0.60;;;16.80;99.90;;;;;;4938829;29;20390;-79
2023/08/04 04:22:00;;;;;;;1.07;0.77;;;16.90;99.90;;;;;;4900902;29;20401;-79
2023/08/04 04:24:26;;;;;;;1.90;0.80;;;16.90;99.90;;;;;;4918010;29;20457;-80
2023/08/04 04:26:51;;;;;;;1.30;0.50;;;16.90;99.90;;;;;;4901604;29;20429;-80
2023/08/04 04:29:17;;;;;;;1.40;0.70;;;15.70;99.90;;;;;;4900755;29;20939;-80
2023/08/04 04:31:42;;;;;;;1.50;0.50;;;16.90;99.90;;;;;;4930494;29;20430;-79
2023/08/04 04:34:08;;;;;;;1.63;0.60;;;18.30;99.90;;;;;;4919672;29;20451;-80
2023/08/04 04:36:33;;;;;;;0.90;0.53;;;16.90;99.90;;;;;;4920108;29;20440;-80
2023/08/04 04:39:00;;;;;;;1.03;0.60;;;17.00;99.90;;;;;;4947332;29;20974;-80
2023/08/04 04:41:27;;;;;;;1.88;0.55;;;17.00;99.90;;;;;;4940906;29;20440;-79
2023/08/04 04:43:53;;;;;;;0.80;0.60;;;16.90;99.90;;;;;;4958162;28;20401;-80
2023/08/04 04:46:18;;;;;;;1.55;0.73;;;16.80;99.90;;;;;;4939164;29;20398;-79
2023/08/04 04:48:44;;;;;;;2.00;0.63;;;16.70;99.90;;;;;;4920722;29;20407;-80
2023/08/04 04:51:09;;;;;;;2.20;0.50;;;15.90;99.90;;;;;;4921300;29;20423;-80
2023/08/04 04:53:35;;;;;;;1.63;0.60;;;17.60;99.90;;;;;;4921564;29;20428;-80
2023/08/04 04:56:00;;;;;;;1.50;0.60;;;16.40;99.90;;;;;;4921718;29;20505;-80
2023/08/04 04:58:26;;;;;;;1.38;0.50;;;16.80;99.90;;;;;;4955358;29;20415;-80
2023/08/04 05:00:51;;;;;;;2.00;0.60;;;16.80;99.90;;;;;;4958973;29;20394;-79
2023/08/04 05:03:17;;;;;;;1.60;0.70;;;16.80;99.90;;;;;;4955424;28;20408;-78
2023/08/04 05:05:45;;;;;;;0.90;0.50;;;16.90;99.90;;;;;;4927559;29;20409;-78
2023/08/04 05:08:10;;;;;;;0.73;0.50;;;16.90;99.90;;;;;;4926494;29;20401;-79
2023/08/04 05:10:36;;;;;;;1.70;0.73;;;16.90;99.90;;;;;;4906139;29;20910;-80
2023/08/04 05:13:01;;;;;;;1.70;0.90;;;16.90;99.90;;;;;;4924261;29;20461;-80
2023/08/04 05:15:27;;;;;;;0.90;0.50;;;17.00;99.90;;;;;;4938479;29;20514;-79
2023/08/04 05:17:52;;;;;;;1.50;0.60;;;17.20;99.90;;;;;;4955837;29;20843;-80
2023/08/04 05:20:18;;;;;;;1.40;0.60;;;18.30;99.90;;;;;;4938203;29;20452;-80
2023/08/04 05:22:43;;;;;;;2.05;0.55;;;17.20;99.90;;;;;;4954973;28;20801;-80
2023/08/04 05:25:09;;;;;;;2.13;0.80;;;16.90;99.90;;;;;;4939918;29;20414;-79
2023/08/04 05:27:34;;;;;;;1.80;0.70;;;17.20;99.90;;;;;;4960566;29;20404;-81
2023/08/04 05:30:01;;;;;;;0.98;0.50;;;17.30;99.90;;;;;;4927708;29;20477;-80
2023/08/04 05:32:27;;;;;;;0.70;0.50;;;17.30;99.90;;;;;;4946476;29;20408;-80
2023/08/04 05:34:52;;;;;;;1.83;0.70;;;17.30;99.90;;;;;;4957502;29;20925;-79
2023/08/04 05:37:18;;;;;;;0.73;0.60;;;17.30;99.90;;;;;;4961624;29;20457;-80
2023/08/04 05:39:43;;;;;;;1.40;0.70;;;17.40;99.90;;;;;;4942796;29;20408;-80
2023/08/04 05:42:09;;;;;;;0.90;0.70;;;17.30;99.90;;;;;;4940533;29;20399;-82
2023/08/04 05:44:34;;;;;;;0.90;0.50;;;17.40;99.90;;;;;;4940479;29;20404;-80
2023/08/04 05:47:00;;;;;;;0.98;0.60;;;17.40;99.90;;;;;;4942208;29;20840;-80
2023/08/04 05:49:25;;;;;;;2.33;0.90;;;17.50;99.90;;;;;;4927152;29;20487;-80
2023/08/04 05:51:51;;;;;;;1.90;0.60;;;17.50;99.90;;;;;;4940881;29;20415;-80
2023/08/04 05:54:16;;;;;;;0.80;0.50;;;17.50;99.90;;;;;;4924372;29;20411;-80
2023/08/04 05:56:42;;;;;;;1.13;0.60;;;17.50;99.90;;;;;;4941465;29;20387;-80
2023/08/04 05:59:08;;;;;;;2.20;0.90;;;17.50;99.90;;;;;;4955489;29;20489;-79
2023/08/04 06:01:33;;;;;;;1.30;0.70;;;17.60;99.90;;;;;;4942975;29;20421;-82
2023/08/04 06:03:59;;;;;;;0.68;0.50;;;17.60;99.90;;;;;;4927460;29;20435;-81
2023/08/04 06:06:25;;;;;;;0.67;0.57;;;17.50;99.90;;;;;;4942477;29;20391;-81
2023/08/04 06:08:51;;;;;;;0.60;0.47;;;17.50;99.90;;;;;;4923577;29;20907;-80
2023/08/04 06:11:16;;;;;;;1.20;0.50;;;17.50;99.90;;;;;;4943018;29;20406;-77
2023/08/04 06:13:42;;;;;;;1.00;0.60;;;17.50;99.90;;;;;;4944995;28;20454;-80
2023/08/04 06:16:07;;;;;;;0.70;0.50;;;16.70;99.90;;;;;;4942305;29;20446;-82
2023/08/04 06:18:33;;;;;;;2.30;0.50;;;17.50;99.90;;;;;;4935135;29;20492;-80
2023/08/04 06:20:58;;;;;;;1.50;0.45;;;17.60;99.90;;;;;;4958734;29;20398;-79
2023/08/04 06:23:24;;;;;;;1.37;0.60;;;17.60;99.90;;;;;;4958947;28;20412;-81
2023/08/04 06:25:50;;;;;;;1.40;0.52;;;17.60;99.90;;;;;;4944514;29;20756;-78
2023/08/04 06:28:15;;;;;;;1.20;0.70;;;17.70;99.90;;;;;;4955608;29;20414;-78
2023/08/04 06:30:41;;;;;;;1.63;0.60;;;17.70;99.90;;;;;;4942023;29;20409;-78
2023/08/04 06:33:07;;;;;;;0.60;0.43;;;17.40;99.90;;;;;;4926118;29;20431;-79
2023/08/04 06:35:32;;;;;;;1.40;0.70;;;17.90;99.90;;;;;;4924961;29;20412;-79
2023/08/04 06:37:58;;;;;;;0.70;0.50;;;17.70;99.90;;;;;;4948348;29;20417;-81
2023/08/04 06:40:23;;;;;;;1.00;0.50;;;17.90;99.90;;;;;;4944495;29;20775;-81
2023/08/04 06:42:49;;;;;;;1.10;0.60;;;17.90;99.90;;;;;;4959878;28;20397;-79
2023/08/04 06:45:15;;;;;;;1.10;0.70;;;17.80;99.90;;;;;;4943040;29;20438;-81
2023/08/04 06:47:41;;;;;;;1.02;0.50;;;18.00;99.90;;;;;;4924498;29;20816;-78
2023/08/04 06:50:07;;;;;;;0.80;0.57;;;18.00;99.90;;;;;;4923772;29;20409;-79
2023/08/04 06:52:33;;;;;;;1.27;0.50;;;18.10;99.90;;;;;;4922135;29;20392;-79
2023/08/04 06:54:59;;;;;;;0.90;0.50;;;17.90;99.90;;;;;;4954158;29;20416;-79
2023/08/04 06:57:24;;;;;;;0.90;0.70;;;17.70;99.90;;;;;;4941953;29;20913;-81
2023/08/04 06:59:50;;;;;;;2.10;0.50;;;17.80;99.90;;;;;;4941685;29;20401;-80
2023/08/04 07:02:16;;;;;;;0.90;0.63;;;17.70;99.90;;;;;;4958670;29;20989;-81
2023/08/04 07:04:41;;;;;;;1.40;0.60;;;17.70;99.90;;;;;;4927714;29;20403;-80
2023/08/04 07:07:07;;;;;;;0.70;0.40;;;17.80;99.90;;;;;;4925225;29;20410;-80
2023/08/04 07:09:32;;;;;;;0.83;0.50;;;17.80;99.90;;;;;;4949821;29;20415;-80
2023/08/04 07:11:58;;;;;;;2.08;0.73;;;17.80;99.90;;;;;;4921262;29;20482;-80
2023/08/04 07:14:23;;;;;;;1.10;0.70;;;17.90;99.90;;;;;;4941207;29;20910;-81
2023/08/04 07:16:49;;;;;;;1.88;0.50;;;18.10;99.90;;;;;;4940522;29;20440;-78
2023/08/04 07:19:15;;;;;;;0.70;0.50;;;17.90;99.90;;;;;;4931769;29;20493;-81
2023/08/04 07:21:41;;;;;;;1.60;0.50;;;17.90;99.90;;;;;;4964497;29;20480;-79
2023/08/04 07:24:08;;;;;;;1.88;0.70;;;18.00;99.90;;;;;;4949067;29;20862;-81
2023/08/04 07:26:34;;;;;;;0.80;0.50;;;18.10;99.90;;;;;;4943477;29;20405;-81
2023/08/04 07:29:00;;;;;;;1.48;0.57;;;17.20;99.90;;;;;;4948903;29;20414;-81
2023/08/04 07:31:26;;;;;;;1.20;0.60;;;18.80;99.90;;;;;;4923069;29;20402;-80
2023/08/04 07:33:51;;;;;;;1.10;0.53;;;18.20;99.90;;;;;;4924468;29;20407;-81
2023/08/04 07:36:17;;;;;;;1.00;0.60;;;17.10;99.90;;;;;;4925214;29;20423;-81
2023/08/04 07:38:42;;;;;;;1.45;0.75;;;18.20;99.90;;;;;;4947323;29;20410;-80
2023/08/04 07:41:08;;;;;;;1.03;0.60;;;18.20;99.90;;;;;;4956869;29;20397;-80
2023/08/04 07:43:33;;;;;;;0.90;0.60;;;18.20;99.90;;;;;;4929487;29;20407;-79
2023/08/04 07:45:59;;;;;;;1.00;0.60;;;18.10;99.90;;;;;;4921453;29;20391;-80
2023/08/04 07:48:24;;;;;;;1.00;0.50;;;18.20;99.90;;;;;;4937182;29;20398;-82
2023/08/04 07:50:51;;;;;;;1.00;0.80;;;18.10;99.90;;;;;;4937745;29;20737;-80
2023/08/04 07:53:18;;;;;;;1.23;0.40;;;18.20;99.90;;;;;;4927737;29;20402;-80
2023/08/04 07:55:54;;;;;;;1.35;0.50;;;18.20;99.90;;;;;;4945530;29;20438;-80
2023/08/04 07:58:19;;;;;;;1.30;0.52;;;18.30;99.90;;;;;;4956973;29;20437;-80
2023/08/04 08:00:45;;;;;;;0.70;0.50;;;18.40;99.90;;;;;;4973933;29;20417;-78
2023/08/04 08:03:10;;;;;;;1.10;0.53;;;18.40;99.90;;;;;;4958228;29;20424;-80
2023/08/04 08:05:36;;;;;;;0.80;0.50;;;18.20;99.90;;;;;;4907180;29;20409;-80
2023/08/04 08:08:01;;;;;;;0.70;0.50;;;17.80;99.90;;;;;;4926756;29;20397;-81
2023/08/04 08:10:27;;;;;;;1.60;0.60;;;18.30;99.90;;;;;;4915226;29;20412;-80
2023/08/04 08:12:53;;;;;;;0.50;0.40;;;18.20;99.90;;;;;;4931908;29;20406;-81
2023/08/04 08:15:19;;;;;;;0.80;0.50;;;18.20;99.90;;;;;;4957974;29;20420;-82
2023/08/04 08:17:45;;;;;;;2.00;0.52;;;18.20;99.90;;;;;;4959953;29;20390;-80
2023/08/04 08:20:11;;;;;;;1.60;0.50;;;18.30;99.90;;;;;;4944004;29;20392;-82
2023/08/04 08:22:36;;;;;;;0.80;0.40;;;18.20;99.90;;;;;;4948385;29;20478;-82
2023/08/04 08:25:02;;;;;;;2.97;0.80;;;18.30;99.90;;;;;;5009852;23;20525;-84
2023/08/04 08:27:28;;;;;;;0.95;0.40;;;17.50;99.90;;;;;;4991145;28;20465;-84
2023/08/04 08:29:55;;;;;;;0.70;0.45;;;18.30;99.90;;;;;;4993784;28;20394;-84
2023/08/04 08:32:21;;;;;;;0.60;0.40;;;18.40;99.90;;;;;;4983402;28;20819;-84
2023/08/04 08:34:46;;;;;;;0.80;0.40;;;18.30;99.90;;;;;;4973074;28;20419;-84
2023/08/04 08:37:12;;;;;;;0.80;0.50;;;17.40;99.90;;;;;;4972091;28;20400;-84
2023/08/04 08:39:38;;;;;;;0.50;0.40;;;18.50;99.90;;;;;;4988570;28;20470;-84
2023/08/04 08:42:03;;;;;;;1.10;0.40;;;18.50;99.90;;;;;;4992433;28;20391;-85
2023/08/04 08:44:29;;;;;;;0.73;0.35;;;18.70;99.90;;;;;;4991701;28;20481;-84
2023/08/04 08:46:55;;;;;;;0.85;0.40;;;18.40;99.90;;;;;;4993214;28;20402;-84
2023/08/04 08:49:25;;;;;;;2.60;0.50;;;19.30;99.90;;;;;;4986971;28;20403;-83
2023/08/04 08:51:55;;;;;;;0.50;0.30;;;18.70;99.90;;;;;;5005837;28;20394;-83
2023/08/04 08:54:22;;;;;;;0.70;0.40;;;20.50;99.90;;;;;;5004683;28;20480;-85
2023/08/04 08:56:49;;;;;;;0.60;0.50;;;18.70;99.90;;;;;;4998374;28;20464;-84
2023/08/04 08:59:15;;;;;;;0.80;0.50;;;18.60;99.90;;;;;;4989348;28;20413;-85
2023/08/04 09:01:41;;;;;;;1.13;0.40;;;17.80;99.90;;;;;;4974549;28;20392;-84
2023/08/04 09:04:07;;;;;;;0.85;0.50;;;19.30;99.90;;;;;;4984944;28;20386;-84
2023/08/04 09:06:32;;;;;;;0.52;0.40;;;17.90;99.90;;;;;;4995332;28;20405;-84
2023/08/04 09:09:02;;;;;;;0.60;0.30;;;18.60;99.90;;;;;;4994709;28;20398;-83
2023/08/04 09:11:31;;;;;;;0.80;0.60;;;19.90;99.90;;;;;;4993839;28;20533;-84
2023/08/04 09:13:57;;;;;;;1.00;0.50;;;18.00;99.90;;;;;;4994147;28;20391;-83
2023/08/04 09:16:33;;;;;;;0.50;0.30;;;17.60;99.90;;;;;;4994242;28;20402;-84
2023/08/04 09:19:04;;;;;;;0.65;0.40;;;18.50;99.90;;;;;;4986254;28;20422;-83
2023/08/04 09:21:30;;;;;;;0.50;0.40;;;18.50;99.90;;;;;;4981740;28;20398;-84
2023/08/04 09:23:55;;;;;;;1.20;0.40;;;18.50;99.90;;;;;;4994763;28;20770;-83
2023/08/04 09:26:22;;;;;;;0.40;0.30;;;18.90;99.90;;;;;;5010634;28;20410;-84
2023/08/04 09:29:06;;;;;;;0.70;0.40;;;18.40;99.90;;;;;;4994199;28;20796;-84
2023/08/04 09:31:39;;;;;;;1.50;0.50;;;18.40;99.90;;;;;;4983670;28;20483;-84
2023/08/04 09:34:06;;;;;;;0.90;0.50;;;18.60;99.90;;;;;;4994522;28;20957;-84
2023/08/04 09:36:37;;;;;;;1.42;0.47;;;18.60;99.90;;;;;;4995358;28;20457;-83
2023/08/04 09:39:04;;;;;;;0.60;0.50;;;18.80;99.90;;;;;;4995741;28;20410;-84
2023/08/04 09:41:32;;;;;;;0.50;0.40;;;18.40;99.90;;;;;;4992939;28;21067;-83
2023/08/04 09:44:03;;;;;;;2.28;0.70;;;19.20;99.90;;;;;;4975615;28;20401;-83
2023/08/04 09:46:28;;;;;;;1.02;0.50;;;20.30;99.90;;;;;;4974014;28;20396;-84
2023/08/04 09:48:58;;;;;;;2.38;0.60;;;19.20;99.90;;;;;;4975356;28;20400;-84
2023/08/04 09:51:24;;;;;;;0.60;0.47;;;20.00;99.90;;;;;;4974032;28;20800;-84
2023/08/04 09:53:54;;;;;;;1.00;0.60;;;19.40;99.90;;;;;;4974149;28;20483;-84
2023/08/04 09:56:21;;;;;;;0.73;0.40;;;19.20;99.90;;;;;;4974227;28;20404;-84
2023/08/04 09:58:48;;;;;;;0.70;0.40;;;19.30;99.90;;;;;;4974724;28;20387;-85
2023/08/04 10:01:15;;;;;;;0.90;0.50;;;19.60;99.90;;;;;;4983342;28;20387;-84
2023/08/04 10:03:49;;;;;;;1.10;0.40;;;19.80;99.90;;;;;;4992492;28;20394;-84
2023/08/04 10:06:15;;;;;;;0.90;0.50;;;20.50;99.90;;;;;;4993379;28;20399;-85
2023/08/04 10:08:40;;;;;;;0.52;0.40;;;20.20;99.90;;;;;;5000335;28;20398;-84
2023/08/04 10:11:07;;;;;;;0.80;0.40;;;19.80;99.90;;;;;;5010749;28;20410;-83
2023/08/04 10:13:35;;;;;;;0.60;0.30;;;20.00;99.90;;;;;;5002084;28;20779;-83
2023/08/04 10:16:05;;;;;;;1.20;0.50;;;19.70;99.90;;;;;;5012323;28;20410;-82
2023/08/04 10:18:50;;;;;;;0.60;0.45;;;19.90;99.90;;;;;;5014280;28;20393;-85
2023/08/04 10:21:19;;;;;;;0.80;0.40;;;20.10;99.90;;;;;;4989784;28;20394;-84
2023/08/04 10:23:44;;;;;;;1.90;0.80;;;20.20;99.90;;;;;;4975450;28;20399;-85
2023/08/04 10:26:12;;;;;;;1.10;0.60;;;20.20;99.90;;;;;;4986076;28;20396;-84
2023/08/04 10:29:01;;;;;;;0.63;0.60;;;20.20;99.90;;;;;;4993634;28;20930;-84
2023/08/04 10:31:52;;;;;;;1.00;0.40;;;20.40;99.90;;;;;;5009371;28;20402;-84
2023/08/04 10:34:29;;;;;;;0.70;0.40;;;20.40;99.90;;;;;;4994139;28;20446;-84
2023/08/04 10:37:12;;;;;;;0.80;0.40;;;20.50;99.90;;;;;;4993947;28;20390;-84
2023/08/04 10:39:38;;;;;;;0.43;0.30;;;20.50;99.90;;;;;;4990939;28;20395;-85
2023/08/04 10:42:06;;;;;;;0.40;0.30;;;20.50;99.90;;;;;;4972707;28;20404;-85
2023/08/04 10:44:47;;;;;;;0.40;0.30;;;20.80;99.90;;;;;;4973931;28;20457;-85
2023/08/04 10:47:13;;;;;;;0.50;0.40;;;21.00;99.90;;;;;;4973053;28;20764;-85
2023/08/04 10:49:39;;;;;;;0.60;0.40;;;21.00;99.90;;;;;;4976498;28;20388;-85
2023/08/04 10:52:05;;;;;;;0.60;0.40;;;21.50;99.90;;;;;;5015108;28;20395;-85
2023/08/04 10:54:30;;;;;;;1.17;0.50;;;20.80;99.90;;;;;;4993368;28;20387;-85
2023/08/04 10:56:56;;;;;;;0.70;0.40;;;22.30;99.90;;;;;;4990365;28;20437;-85
2023/08/04 10:59:21;;;;;;;0.70;0.40;;;20.60;99.90;;;;;;4979726;28;20406;-82
2023/08/04 11:01:47;;;;;;;0.40;0.30;;;20.70;99.90;;;;;;4993889;28;20401;-78
2023/08/04 11:04:17;;;;;;;0.70;0.40;;;20.80;99.90;;;;;;4997380;28;20379;-81
2023/08/04 11:06:44;;;;;;;0.40;0.30;;;20.80;99.90;;;;;;5001319;28;20845;-79
2023/08/04 11:09:10;;;;;;;0.60;0.50;;;20.80;99.90;;;;;;4996039;28;20398;-86
2023/08/04 11:11:36;;;;;;;1.00;0.40;;;20.60;99.90;;;;;;4994809;28;20985;-83
2023/08/04 11:14:07;;;;;;;0.60;0.40;;;19.60;99.90;;;;;;4998325;28;20417;-84
2023/08/04 11:16:35;;;;;;;1.30;0.43;;;20.10;99.90;;;;;;4998558;28;20414;-82
2023/08/04 11:19:04;;;;;;;0.50;0.40;;;20.00;99.90;;;;;;4996712;28;20397;-83
2023/08/04 11:21:30;;;;;;;1.80;0.50;;;19.80;99.90;;;;;;4996936;28;20426;-82
2023/08/04 11:23:55;;;;;;;0.80;0.40;;;19.70;99.90;;;;;;4999400;28;20496;-84
2023/08/04 11:26:22;;;;;;;0.50;0.40;;;19.80;99.90;;;;;;4998290;28;20433;-83
2023/08/04 11:28:48;;;;;;;0.60;0.60;;;19.70;99.90;;;;;;4987789;28;20404;-83
2023/08/04 11:31:20;;;;;;;0.93;0.50;;;19.00;99.90;;;;;;4978121;28;20392;-84
2023/08/04 11:33:45;;;;;;;2.33;0.60;;;19.80;99.90;;;;;;4979556;28;20400;-84
2023/08/04 11:36:11;;;;;;;1.17;0.60;;;19.70;99.90;;;;;;4977425;28;21047;-84
2023/08/04 11:38:37;;;;;;;1.50;0.50;;;19.40;99.90;;;;;;4983805;28;20411;-83
2023/08/04 11:41:07;;;;;;;0.40;0.30;;;19.20;99.90;;;;;;4997887;28;20394;-83
2023/08/04 11:43:33;;;;;;;0.40;0.30;;;19.10;99.90;;;;;;4996273;28;20953;-83
2023/08/04 11:46:03;;;;;;;2.30;0.40;;;18.90;99.90;;;;;;4980109;28;20412;-83
2023/08/04 11:48:29;;;;;;;0.63;0.38;;;18.30;99.90;;;;;;4977274;28;20415;-83
2023/08/04 11:50:56;;;;;;;0.40;0.30;;;18.20;99.90;;;;;;4976236;28;20900;-83
2023/08/04 11:53:22;;;;;;;0.70;0.35;;;17.40;99.90;;;;;;4975627;28;20391;-82
2023/08/04 11:55:56;;;;;;;1.00;0.32;;;17.40;99.90;;;;;;4989091;28;20406;-82
2023/08/04 11:58:32;;;;;;;0.90;0.50;;;17.40;99.90;;;;;;4987093;28;20401;-82
2023/08/04 12:00:58;;;;;;;0.80;0.50;;;17.20;99.90;;;;;;4976643;28;20887;-81
2023/08/04 12:03:24;;;;;;;0.60;0.40;;;17.00;99.90;;;;;;4978318;28;20395;-82
2023/08/04 12:05:50;;;;;;;0.70;0.50;;;16.80;99.90;;;;;;5009094;28;20708;-81
2023/08/04 12:08:16;;;;;;;0.80;0.50;;;16.50;99.90;;;;;;4996702;28;20427;-84
2023/08/04 12:10:42;;;;;;;0.88;0.60;;;16.40;99.90;;;;;;4980716;28;20400;-82
2023/08/04 12:13:08;;;;;;;1.10;0.80;;;16.40;99.90;;;;;;4992822;28;20413;-82
2023/08/04 12:15:53;;;;;;;1.10;0.77;;;16.40;99.90;;;;;;4984920;28;20412;-83
2023/08/04 12:18:23;;;;;;;1.05;0.95;;;16.30;99.90;;;;;;4998659;28;20396;-83
2023/08/04 12:20:48;;;;;;;0.70;0.70;;;15.50;99.90;;;;;;4997572;28;20392;-85
2023/08/04 12:23:14;;;;;;;1.15;0.90;;;16.30;99.90;;;;;;5005942;28;20437;-82
2023/08/04 12:25:39;;;;;;;1.90;0.70;;;16.40;99.90;;;;;;4984796;28;20462;-82
2023/08/04 12:28:05;;;;;;;1.00;0.90;;;16.20;99.90;;;;;;4972458;28;20392;-81
2023/08/04 12:30:30;;;;;;;1.40;0.90;;;16.30;99.90;;;;;;4972462;28;20384;-82
2023/08/04 12:32:56;;;;;;;0.80;0.80;;;16.30;99.90;;;;;;4985377;28;20474;-82
2023/08/04 12:35:21;;;;;;;1.00;0.80;;;16.20;99.90;;;;;;4997209;28;20460;-82
2023/08/04 12:37:47;;;;;;;1.08;0.80;;;16.10;99.90;;;;;;5000223;28;20428;-82
2023/08/04 12:40:12;;;;;;;1.20;0.80;;;16.20;99.90;;;;;;5003294;28;20386;-82
2023/08/04 12:42:38;;;;;;;1.00;0.80;;;16.20;99.90;;;;;;4999014;28;20472;-82
2023/08/04 12:45:04;;;;;;;1.10;0.90;;;16.30;99.90;;;;;;4990019;28;20436;-84